createdAt,value
2023-01-07T00:01:27.311Z,5.90
2023-01-07T00:03:55.505Z,6.00
2023-01-07T00:06:28.043Z,6.00
2023-01-07T00:08:56.481Z,6.10
2023-01-07T00:11:32.359Z,6.00
2023-01-07T00:14:00.697Z,5.90
2023-01-07T00:16:30.084Z,6.00
2023-01-07T00:18:58.939Z,6.00
2023-01-07T00:21:26.632Z,6.00
2023-01-07T00:23:56.208Z,6.10
2023-01-07T00:26:24.714Z,6.10
2023-01-07T00:28:53.205Z,6.10
2023-01-07T00:31:22.466Z,6.10
2023-01-07T00:33:59.379Z,6.10
2023-01-07T00:36:31.457Z,6.10
2023-01-07T00:39:01.023Z,6.10
2023-01-07T00:41:28.143Z,6.10
2023-01-07T00:43:55.057Z,6.10
2023-01-07T00:46:22.658Z,6.10
2023-01-07T00:48:49.598Z,6.30
2023-01-07T00:51:18.036Z,6.20
2023-01-07T00:53:44.891Z,6.30
2023-01-07T00:56:12.486Z,6.20
2023-01-07T00:58:39.373Z,6.30
2023-01-07T01:01:06.542Z,6.30
2023-01-07T01:03:33.974Z,6.40
2023-01-07T01:06:06.193Z,6.20
2023-01-07T01:08:33.276Z,6.20
2023-01-07T01:11:08.185Z,6.30
2023-01-07T01:13:35.750Z,6.30
2023-01-07T01:16:06.799Z,6.30
2023-01-07T01:18:33.610Z,6.40
2023-01-07T01:21:08.534Z,6.30
2023-01-07T01:23:35.420Z,6.30
2023-01-07T01:26:04.392Z,6.30
2023-01-07T01:28:31.752Z,6.30
2023-01-07T01:30:58.665Z,6.30
2023-01-07T01:33:25.561Z,6.30
2023-01-07T01:35:52.352Z,6.30
2023-01-07T01:38:19.249Z,6.30
2023-01-07T01:40:46.177Z,6.30
2023-01-07T01:43:45.679Z,6.40
2023-01-07T01:46:22.072Z,6.40
2023-01-07T01:48:56.710Z,6.40
2023-01-07T01:51:27.481Z,6.50
2023-01-07T01:53:56.164Z,6.40
2023-01-07T01:56:30.469Z,6.50
2023-01-07T01:59:09.029Z,6.60
2023-01-07T02:01:36.959Z,6.50
2023-01-07T02:04:11.326Z,6.40
2023-01-07T02:06:44.912Z,6.40
2023-01-07T02:09:12.878Z,6.40
2023-01-07T02:11:49.356Z,6.40
2023-01-07T02:14:44.007Z,6.40
2023-01-07T02:17:22.540Z,6.40
2023-01-07T02:20:16.724Z,6.40
2023-01-07T02:23:05.402Z,6.40
2023-01-07T02:25:47.240Z,6.40
2023-01-07T02:28:26.175Z,6.50
2023-01-07T02:31:17.847Z,6.50
2023-01-07T02:33:50.564Z,6.40
2023-01-07T02:36:26.457Z,6.40
2023-01-07T02:39:02.158Z,6.40
2023-01-07T02:41:43.951Z,6.40
2023-01-07T02:44:35.948Z,6.40
2023-01-07T02:47:06.717Z,6.50
2023-01-07T02:49:35.130Z,6.50
2023-01-07T02:52:25.652Z,6.60
2023-01-07T02:55:07.126Z,6.60
2023-01-07T02:57:52.737Z,6.60
2023-01-07T03:00:54.468Z,6.60
2023-01-07T03:03:43.840Z,6.70
2023-01-07T03:06:29.520Z,6.60
2023-01-07T03:09:19.375Z,6.70
2023-01-07T03:11:49.330Z,6.70
2023-01-07T03:14:22.726Z,6.70
2023-01-07T03:17:00.531Z,6.70
2023-01-07T03:19:36.191Z,6.80
2023-01-07T03:22:07.734Z,6.90
2023-01-07T03:24:35.315Z,6.90
2023-01-07T03:27:05.080Z,6.90
2023-01-07T03:29:32.349Z,7.00
2023-01-07T03:32:17.131Z,7.00
2023-01-07T03:34:45.603Z,7.10
2023-01-07T03:37:16.534Z,7.00
2023-01-07T03:39:45.220Z,6.90
2023-01-07T03:42:32.317Z,7.00
2023-01-07T03:45:00.406Z,7.00
2023-01-07T03:47:29.081Z,7.00
2023-01-07T03:49:55.932Z,7.10
2023-01-07T03:52:22.819Z,7.20
2023-01-07T03:54:49.632Z,7.20
2023-01-07T03:57:16.573Z,7.30
2023-01-07T03:59:43.500Z,7.40
2023-01-07T04:02:10.429Z,7.40
2023-01-07T04:04:37.358Z,7.50
2023-01-07T04:07:04.453Z,7.50
2023-01-07T04:09:31.304Z,7.60
2023-01-07T04:11:58.116Z,7.60
2023-01-07T04:14:25.072Z,7.60
2023-01-07T04:16:51.993Z,7.50
2023-01-07T04:19:19.826Z,7.60
2023-01-07T04:21:46.683Z,7.50
2023-01-07T04:24:13.579Z,7.50
2023-01-07T04:26:40.413Z,7.60
2023-01-07T04:29:07.451Z,7.70
2023-01-07T04:31:34.398Z,7.70
2023-01-07T04:34:01.229Z,7.70
2023-01-07T04:36:28.551Z,7.80
2023-01-07T04:38:55.340Z,7.80
2023-01-07T04:41:22.156Z,7.80
2023-01-07T04:43:49.015Z,7.90
2023-01-07T04:46:15.922Z,7.90
2023-01-07T04:48:42.752Z,7.90
2023-01-07T04:51:09.669Z,7.90
2023-01-07T04:53:36.460Z,8.00
2023-01-07T04:56:05.687Z,8.10
2023-01-07T04:58:32.665Z,8.00
2023-01-07T05:01:01.123Z,8.00
2023-01-07T05:03:28.064Z,7.90
2023-01-07T05:05:54.962Z,8.00
2023-01-07T05:08:21.938Z,8.00
2023-01-07T05:10:52.729Z,8.10
2023-01-07T05:13:21.390Z,8.10
2023-01-07T05:15:48.905Z,8.20
2023-01-07T05:18:16.390Z,8.10
2023-01-07T05:20:43.379Z,8.20
2023-01-07T05:23:10.267Z,8.10
2023-01-07T05:25:37.137Z,8.20
2023-01-07T05:28:04.188Z,8.30
2023-01-07T05:30:31.819Z,8.30
2023-01-07T05:32:58.694Z,8.50
2023-01-07T05:35:25.525Z,8.30
2023-01-07T05:37:52.311Z,8.30
2023-01-07T05:40:19.141Z,8.30
2023-01-07T05:42:46.192Z,8.40
2023-01-07T05:45:13.146Z,8.50
2023-01-07T05:47:40.017Z,8.50
2023-01-07T05:50:07.129Z,8.50
2023-01-07T05:52:34.044Z,8.50
2023-01-07T05:55:00.867Z,8.50
2023-01-07T05:57:27.694Z,8.50
2023-01-07T05:59:54.546Z,8.70
2023-01-07T06:02:21.354Z,8.60
2023-01-07T06:04:48.303Z,8.50
2023-01-07T06:07:15.320Z,8.50
2023-01-07T06:09:42.107Z,8.50
2023-01-07T06:12:08.882Z,8.50
2023-01-07T06:14:35.699Z,8.50
2023-01-07T06:17:02.498Z,8.50
2023-01-07T06:19:29.298Z,8.50
2023-01-07T06:21:56.071Z,8.60
2023-01-07T06:24:22.934Z,8.80
2023-01-07T06:26:49.840Z,8.70
2023-01-07T06:29:16.837Z,8.80
2023-01-07T06:31:43.694Z,8.70
2023-01-07T06:34:10.538Z,8.70
2023-01-07T06:36:37.335Z,8.70
2023-01-07T06:39:04.223Z,8.80
2023-01-07T06:41:31.075Z,8.80
2023-01-07T06:43:58.039Z,8.90
2023-01-07T06:46:25.195Z,9.00
2023-01-07T06:48:52.082Z,9.20
2023-01-07T06:51:18.899Z,9.20
2023-01-07T06:53:46.804Z,9.20
2023-01-07T06:56:13.593Z,9.20
2023-01-07T06:58:40.465Z,9.30
2023-01-07T07:01:08.986Z,9.30
2023-01-07T07:03:35.953Z,9.40
2023-01-07T07:06:02.809Z,9.40
2023-01-07T07:08:29.609Z,9.40
2023-01-07T07:10:56.606Z,9.50
2023-01-07T07:13:23.476Z,9.50
2023-01-07T07:15:50.430Z,9.60
2023-01-07T07:18:18.295Z,9.50
2023-01-07T07:20:48.418Z,9.70
2023-01-07T07:23:15.766Z,9.70
2023-01-07T07:25:42.697Z,9.80
2023-01-07T07:28:09.690Z,9.70
2023-01-07T07:30:46.363Z,9.70
2023-01-07T07:33:15.301Z,9.80
2023-01-07T07:35:42.510Z,9.90
2023-01-07T07:38:09.459Z,9.80
2023-01-07T07:40:36.786Z,9.80
2023-01-07T07:43:10.410Z,9.80
2023-01-07T07:45:39.495Z,9.90
2023-01-07T07:48:09.558Z,9.90
2023-01-07T07:50:36.747Z,9.90
2023-01-07T07:53:04.221Z,10.00
2023-01-07T07:55:31.383Z,10.00
2023-01-07T07:58:01.194Z,10.00
2023-01-07T08:00:28.011Z,10.00
2023-01-07T08:02:58.312Z,10.00
2023-01-07T08:05:25.482Z,10.10
2023-01-07T08:07:53.493Z,10.10
2023-01-07T08:10:20.853Z,10.10
2023-01-07T08:12:48.158Z,10.10
2023-01-07T08:15:15.015Z,10.10
2023-01-07T08:17:41.955Z,10.10
2023-01-07T08:20:09.699Z,10.10
2023-01-07T08:22:36.580Z,10.10
2023-01-07T08:25:03.534Z,10.10
2023-01-07T08:27:30.331Z,10.20
2023-01-07T08:29:57.252Z,10.20
2023-01-07T08:32:24.137Z,10.20
2023-01-07T08:34:51.030Z,10.30
2023-01-07T08:37:17.871Z,10.50
2023-01-07T08:39:44.740Z,10.30
2023-01-07T08:42:11.513Z,10.30
2023-01-07T08:44:38.305Z,10.30
2023-01-07T08:47:05.237Z,10.30
2023-01-07T08:49:32.216Z,10.30
2023-01-07T08:51:59.030Z,10.50
2023-01-07T08:54:25.920Z,10.30
2023-01-07T08:56:52.820Z,10.30
2023-01-07T08:59:19.601Z,10.30
2023-01-07T09:01:46.526Z,10.40
2023-01-07T09:04:13.387Z,10.40
2023-01-07T09:06:40.209Z,10.40
2023-01-07T09:09:07.000Z,10.40
2023-01-07T09:11:33.807Z,10.40
2023-01-07T09:14:00.706Z,10.50
2023-01-07T09:16:27.593Z,10.40
2023-01-07T09:18:54.389Z,10.50
2023-01-07T09:21:21.200Z,10.50
2023-01-07T09:23:47.999Z,10.50
2023-01-07T09:26:14.831Z,10.50
2023-01-07T09:28:41.668Z,10.50
2023-01-07T09:31:08.525Z,10.50
2023-01-07T09:33:35.500Z,10.50
2023-01-07T09:36:02.364Z,10.50
2023-01-07T09:38:29.934Z,10.60
2023-01-07T09:40:57.337Z,10.50
2023-01-07T09:44:00.388Z,10.50
2023-01-07T09:46:21.317Z,10.60
2023-01-07T09:48:54.025Z,10.70
2023-01-07T09:51:26.796Z,10.60
2023-01-07T09:53:56.953Z,10.60
2023-01-07T09:56:29.542Z,10.60
2023-01-07T09:58:58.451Z,10.60
2023-01-07T10:01:48.192Z,10.60
2023-01-07T10:04:18.135Z,10.60
2023-01-07T10:06:47.980Z,10.70
2023-01-07T10:09:22.707Z,10.70
2023-01-07T10:12:14.638Z,10.70
2023-01-07T10:14:50.331Z,10.70
2023-01-07T10:17:47.971Z,10.70
2023-01-07T10:20:33.009Z,10.70
2023-01-07T10:23:15.953Z,10.70
2023-01-07T10:25:52.563Z,10.70
2023-01-07T10:28:37.319Z,10.70
2023-01-07T10:31:32.156Z,10.80
2023-01-07T10:33:59.884Z,10.70
2023-01-07T10:36:45.103Z,10.70
2023-01-07T10:39:20.831Z,10.80
2023-01-07T10:42:01.360Z,10.80
2023-01-07T10:44:46.706Z,10.80
2023-01-07T10:47:52.361Z,10.80
2023-01-07T10:50:41.037Z,10.70
2023-01-07T10:53:32.197Z,10.80
2023-01-07T10:56:28.234Z,10.80
2023-01-07T10:58:55.013Z,10.80
2023-01-07T11:01:32.898Z,10.80
2023-01-07T11:04:01.115Z,10.90
2023-01-07T11:06:58.989Z,11.10
2023-01-07T11:09:29.763Z,10.80
2023-01-07T11:12:00.917Z,10.90
2023-01-07T11:14:36.317Z,10.80
2023-01-07T11:17:33.928Z,10.80
2023-01-07T11:20:00.793Z,10.80
2023-01-07T11:22:27.542Z,10.80
2023-01-07T11:24:56.040Z,10.80
2023-01-07T11:27:25.975Z,10.90
2023-01-07T11:30:04.780Z,10.80
2023-01-07T11:32:38.450Z,10.90
2023-01-07T11:35:22.585Z,10.80
2023-01-07T11:37:50.335Z,10.90
2023-01-07T11:40:26.994Z,10.90
2023-01-07T11:43:04.301Z,10.90
2023-01-07T11:46:19.616Z,10.90
2023-01-07T11:48:37.456Z,10.90
2023-01-07T11:51:10.768Z,11.00
2023-01-07T11:53:56.604Z,10.80
2023-01-07T11:56:25.308Z,10.90
2023-01-07T11:59:11.422Z,10.90
2023-01-07T12:01:47.579Z,10.90
2023-01-07T12:04:29.023Z,10.90
2023-01-07T12:07:05.967Z,11.00
2023-01-07T12:09:32.727Z,11.00
2023-01-07T12:12:07.616Z,11.00
2023-01-07T12:14:38.460Z,11.10
2023-01-07T12:17:25.156Z,11.10
2023-01-07T12:20:28.176Z,11.00
2023-01-07T12:23:07.167Z,11.10
2023-01-07T12:25:52.720Z,11.00
2023-01-07T12:29:02.678Z,11.10
2023-01-07T12:31:54.225Z,11.10
2023-01-07T12:34:32.809Z,11.00
2023-01-07T12:37:04.772Z,11.00
2023-01-07T12:39:36.184Z,11.00
2023-01-07T12:42:15.007Z,11.00
2023-01-07T12:44:47.387Z,11.10
2023-01-07T12:47:46.432Z,11.10
2023-01-07T12:50:22.231Z,11.10
2023-01-07T12:52:54.760Z,11.10
2023-01-07T12:55:25.599Z,11.00
2023-01-07T12:58:22.241Z,11.00
2023-01-07T13:01:05.208Z,11.00
2023-01-07T13:03:50.382Z,10.90
2023-01-07T13:06:44.472Z,10.90
2023-01-07T13:09:27.116Z,11.00
2023-01-07T13:12:42.161Z,11.00
2023-01-07T13:15:26.937Z,11.00
2023-01-07T13:17:59.418Z,11.00
2023-01-07T13:20:29.029Z,11.00
2023-01-07T13:22:56.766Z,11.00
2023-01-07T13:25:35.810Z,11.10
2023-01-07T13:28:25.807Z,11.00
2023-01-07T13:31:08.035Z,11.10
2023-01-07T13:33:53.336Z,11.00
2023-01-07T13:36:24.753Z,11.00
2023-01-07T13:39:03.323Z,11.00
2023-01-07T13:41:41.170Z,11.00
2023-01-07T13:44:26.926Z,11.00
2023-01-07T13:46:54.137Z,10.90
2023-01-07T13:49:29.984Z,10.90
2023-01-07T13:52:16.939Z,10.90
2023-01-07T13:54:50.473Z,10.80
2023-01-07T13:57:26.406Z,10.80
2023-01-07T13:59:55.959Z,10.70
2023-01-07T14:02:27.647Z,10.70
2023-01-07T14:05:23.928Z,10.80
2023-01-07T14:07:54.522Z,10.70
2023-01-07T14:10:36.317Z,10.80
2023-01-07T14:13:25.024Z,10.70
2023-01-07T14:16:25.340Z,10.70
2023-01-07T14:18:59.692Z,10.70
2023-01-07T14:21:49.395Z,10.70
2023-01-07T14:24:19.239Z,10.70
2023-01-07T14:27:08.942Z,10.70
2023-01-07T14:29:54.389Z,10.70
2023-01-07T14:32:37.412Z,10.60
2023-01-07T14:35:08.270Z,10.60
2023-01-07T14:37:40.826Z,10.60
2023-01-07T14:40:26.207Z,10.60
2023-01-07T14:42:53.931Z,10.80
2023-01-07T14:45:39.395Z,10.60
2023-01-07T14:48:09.033Z,10.60
2023-01-07T14:51:13.157Z,10.60
2023-01-07T14:53:48.923Z,10.50
2023-01-07T14:56:21.503Z,10.50
2023-01-07T14:59:20.458Z,10.50
2023-01-07T15:02:17.775Z,10.50
2023-01-07T15:05:18.892Z,10.50
2023-01-07T15:07:52.439Z,10.50
2023-01-07T15:10:42.784Z,10.50
2023-01-07T15:13:38.435Z,10.40
2023-01-07T15:16:11.483Z,10.40
2023-01-07T15:18:51.276Z,10.40
2023-01-07T15:21:45.861Z,10.60
2023-01-07T15:24:39.073Z,10.30
2023-01-07T15:27:16.042Z,10.30
2023-01-07T15:29:57.763Z,10.30
2023-01-07T15:33:01.937Z,10.20
2023-01-07T15:35:37.800Z,10.30
2023-01-07T15:38:16.686Z,10.20
2023-01-07T15:40:46.854Z,10.10
2023-01-07T15:43:23.595Z,10.20
2023-01-07T15:46:03.158Z,10.20
2023-01-07T15:48:30.304Z,10.20
2023-01-07T15:50:57.760Z,10.10
2023-01-07T15:53:29.991Z,10.20
2023-01-07T15:56:02.080Z,10.00
2023-01-07T15:58:38.121Z,10.00
2023-01-07T16:01:06.555Z,9.90
2023-01-07T16:03:36.711Z,9.80
2023-01-07T16:06:03.765Z,9.90
2023-01-07T16:08:33.156Z,9.90
2023-01-07T16:11:03.317Z,10.00
2023-01-07T16:13:31.595Z,9.90
2023-01-07T16:16:05.489Z,9.80
2023-01-07T16:18:32.873Z,9.90
2023-01-07T16:21:05.949Z,9.90
2023-01-07T16:23:39.878Z,10.00
2023-01-07T16:26:19.637Z,9.90
2023-01-07T16:28:53.041Z,9.90
2023-01-07T16:31:25.059Z,10.00
2023-01-07T16:33:57.332Z,9.90
2023-01-07T16:36:31.507Z,9.80
2023-01-07T16:39:04.281Z,9.90
2023-01-07T16:41:31.411Z,9.90
2023-01-07T16:43:59.748Z,10.00
2023-01-07T16:46:40.746Z,9.90
2023-01-07T16:49:29.809Z,9.90
2023-01-07T16:52:02.710Z,9.90
2023-01-07T16:54:33.308Z,9.80
2023-01-07T16:57:07.131Z,9.80
2023-01-07T16:59:45.817Z,9.80
2023-01-07T17:02:38.462Z,9.80
2023-01-07T17:05:25.429Z,9.90
2023-01-07T17:08:02.230Z,9.80
2023-01-07T17:10:34.849Z,9.70
2023-01-07T17:13:26.661Z,9.70
2023-01-07T17:16:21.393Z,9.80
2023-01-07T17:18:48.398Z,9.70
2023-01-07T17:21:42.876Z,9.70
2023-01-07T17:24:27.891Z,9.70
2023-01-07T17:27:01.563Z,9.70
2023-01-07T17:29:35.643Z,9.70
2023-01-07T17:32:04.327Z,9.60
2023-01-07T17:34:31.176Z,9.60
2023-01-07T17:36:57.956Z,9.50
2023-01-07T17:39:24.752Z,9.40
2023-01-07T17:42:10.317Z,9.40
2023-01-07T17:44:37.185Z,9.50
2023-01-07T17:47:04.057Z,9.50
2023-01-07T17:49:30.867Z,9.50
2023-01-07T17:51:57.735Z,9.50
2023-01-07T17:54:25.646Z,9.50
2023-01-07T17:56:52.686Z,9.60
2023-01-07T17:59:23.567Z,9.60
2023-01-07T18:01:52.517Z,9.50
2023-01-07T18:04:21.422Z,9.60
2023-01-07T18:06:48.370Z,9.60
2023-01-07T18:09:15.207Z,9.60
2023-01-07T18:12:04.694Z,9.60
2023-01-07T18:14:32.552Z,9.50
2023-01-07T18:16:59.484Z,9.50
2023-01-07T18:19:26.361Z,9.40
2023-01-07T18:21:53.156Z,9.50
2023-01-07T18:24:21.378Z,9.40
2023-01-07T18:26:48.923Z,9.40
2023-01-07T18:29:15.785Z,9.40
2023-01-07T18:31:44.608Z,9.40
2023-01-07T18:34:12.897Z,9.40
2023-01-07T18:36:40.039Z,9.40
2023-01-07T18:39:09.913Z,9.30
2023-01-07T18:41:39.629Z,9.30
2023-01-07T18:44:06.678Z,9.30
2023-01-07T18:46:33.725Z,9.30
2023-01-07T18:49:00.656Z,9.30
2023-01-07T18:51:27.501Z,9.20
2023-01-07T18:53:54.348Z,9.20
2023-01-07T18:56:21.174Z,9.20
2023-01-07T18:58:52.033Z,9.20
2023-01-07T19:01:19.116Z,9.10
2023-01-07T19:03:46.262Z,9.10
2023-01-07T19:06:14.125Z,9.40
2023-01-07T19:08:41.129Z,9.20
2023-01-07T19:11:09.856Z,9.10
2023-01-07T19:13:36.792Z,9.20
2023-01-07T19:16:08.912Z,9.10
2023-01-07T19:18:36.155Z,9.10
2023-01-07T19:21:04.084Z,9.10
2023-01-07T19:23:31.082Z,9.10
2023-01-07T19:26:03.639Z,9.10
2023-01-07T19:28:32.673Z,9.10
2023-01-07T19:30:59.872Z,9.10
2023-01-07T19:33:26.751Z,9.10
2023-01-07T19:36:05.388Z,9.10
2023-01-07T19:38:32.777Z,9.10
2023-01-07T19:40:59.658Z,9.00
2023-01-07T19:43:26.451Z,9.00
2023-01-07T19:45:55.438Z,9.00
2023-01-07T19:48:23.153Z,8.90
2023-01-07T19:50:58.209Z,8.90
2023-01-07T19:53:26.326Z,8.90
2023-01-07T19:55:54.437Z,8.90
2023-01-07T19:58:21.763Z,8.90
2023-01-07T20:00:48.855Z,8.90
2023-01-07T20:03:15.714Z,8.90
2023-01-07T20:05:42.575Z,8.90
2023-01-07T20:08:09.462Z,8.90
2023-01-07T20:10:36.551Z,8.80
2023-01-07T20:13:03.416Z,9.00
2023-01-07T20:15:30.389Z,8.80
2023-01-07T20:17:57.161Z,8.80
2023-01-07T20:20:24.437Z,8.80
2023-01-07T20:22:52.198Z,8.80
2023-01-07T20:25:19.143Z,8.80
2023-01-07T20:27:46.005Z,8.80
2023-01-07T20:30:13.247Z,8.80
2023-01-07T20:32:40.128Z,8.80
2023-01-07T20:35:07.644Z,8.80
2023-01-07T20:37:35.038Z,8.70
2023-01-07T20:40:01.901Z,8.70
2023-01-07T20:42:29.182Z,8.60
2023-01-07T20:44:56.028Z,8.60
2023-01-07T20:47:22.984Z,8.60
2023-01-07T20:49:49.800Z,8.60
2023-01-07T20:52:16.639Z,8.60
2023-01-07T20:54:43.999Z,8.60
2023-01-07T20:57:11.610Z,8.70
2023-01-07T20:59:38.646Z,8.60
2023-01-07T21:02:05.634Z,8.70
2023-01-07T21:04:32.662Z,8.60
2023-01-07T21:06:59.503Z,8.60
2023-01-07T21:09:26.287Z,8.60
2023-01-07T21:11:53.110Z,8.60
2023-01-07T21:14:20.028Z,8.60
2023-01-07T21:16:46.966Z,8.60
2023-01-07T21:19:14.332Z,8.50
2023-01-07T21:21:41.158Z,8.50
2023-01-07T21:24:08.061Z,8.60
2023-01-07T21:26:34.885Z,8.60
2023-01-07T21:29:01.763Z,8.60
2023-01-07T21:31:28.736Z,8.50
2023-01-07T21:33:57.701Z,8.50
2023-01-07T21:36:26.588Z,8.50
2023-01-07T21:38:58.887Z,8.60
2023-01-07T21:41:26.146Z,8.60
2023-01-07T21:43:52.926Z,8.60
2023-01-07T21:46:22.573Z,8.60
2023-01-07T21:48:50.226Z,8.70
2023-01-07T21:51:24.565Z,8.70
2023-01-07T21:53:55.628Z,8.70
2023-01-07T21:56:23.904Z,8.80
2023-01-07T21:58:50.751Z,8.70
2023-01-07T22:01:18.879Z,8.70
2023-01-07T22:03:48.343Z,8.80
2023-01-07T22:06:21.658Z,8.80
2023-01-07T22:08:49.783Z,8.80
2023-01-07T22:11:18.193Z,8.70
2023-01-07T22:13:48.691Z,8.80
2023-01-07T22:16:15.646Z,8.80
2023-01-07T22:18:42.587Z,8.80
2023-01-07T22:21:09.679Z,8.80
2023-01-07T22:23:37.787Z,8.80
2023-01-07T22:26:08.332Z,8.70
2023-01-07T22:28:38.029Z,8.80
2023-01-07T22:31:32.606Z,8.80
2023-01-07T22:33:59.750Z,8.80
2023-01-07T22:36:42.632Z,8.80
2023-01-07T22:39:17.732Z,8.90
2023-01-07T22:41:45.047Z,8.80
2023-01-07T22:44:17.083Z,8.90
2023-01-07T22:46:47.474Z,8.80
2023-01-07T22:49:15.163Z,8.70
2023-01-07T22:51:45.301Z,8.70
2023-01-07T22:54:13.462Z,8.70
2023-01-07T22:56:41.601Z,8.60
2023-01-07T22:59:08.465Z,8.60
2023-01-07T23:01:36.474Z,8.70
2023-01-07T23:04:03.736Z,8.60
2023-01-07T23:06:31.107Z,8.60
2023-01-07T23:08:58.169Z,8.80
2023-01-07T23:11:43.885Z,8.60
2023-01-07T23:14:10.803Z,8.60
2023-01-07T23:16:37.768Z,8.50
2023-01-07T23:19:04.828Z,8.50
2023-01-07T23:21:36.850Z,8.40
2023-01-07T23:24:03.830Z,8.40
2023-01-07T23:26:30.731Z,8.40
2023-01-07T23:28:57.611Z,8.50
2023-01-07T23:31:24.454Z,8.50
2023-01-07T23:33:51.311Z,8.60
2023-01-07T23:36:18.183Z,8.60
2023-01-07T23:38:45.025Z,8.60
2023-01-07T23:41:12.628Z,8.70
2023-01-07T23:43:39.418Z,8.60
2023-01-07T23:46:07.672Z,8.70
2023-01-07T23:48:36.402Z,8.70
2023-01-07T23:51:09.873Z,8.70
2023-01-07T23:53:36.847Z,8.70
2023-01-07T23:56:04.867Z,8.90
2023-01-07T23:58:33.163Z,8.70
